Terminal Aerodrome Forecast
Issued by NWS

Home | Current Version | Previous Version | Text Only | Print | Product List | Glossary On
Versions: 1 2 3 4 5 6 7 8 9 10 11 12 13 14 15 16 17 18 19 20 21
000
FTUS42 KMLB 172333
TAFSFB
TAF
KSFB 172333Z 1800/1824 VRB03KT P6SM FEW040 SCT250
     FM180700 VRB02KT 4SM BR SCT004
      TEMPO 1809/1813 1SM BR BKN004
     FM181500 17004KT P6SM FEW009 SCT015 SCT250
     FM181800 19005KT P6SM SCT035 SCT050 SCT250=

USA.gov is the U.S. government's official web portal to all federal, state and local government web resources and services.